Fame, Mississippi
Current Conditions -  °F | °C
As of 9:55 AM on Sunday 23 Nov 2014 (Local Time) from KGNF Reporting Station
Light Rain Light Rain  
Wind Chill: 13°   Ceiling: 600
Heat Index: 13°   Visibility: 5mi
Dew Point: 13°   Wind: 0mph
Humidity: 100%   Direction: NA
Pressure: 29.63"   Gusts: NA
Location:  33.6106°N, 89.3673°W
Report Text: KGNF 231555Z AUTO 00000KT 5SM -RA SCT002 OVC006 13/13 A2963 RMK AO2 P0004 LTG DSNT E
Loading
Personal Weather Stations






























Interactive Weather Map New forecast layout! Learn more

10-Day Weather Forecast

Advertisements
Track Severe Weather on mobile